sensor_id;sensor_type;location;lat;lon;timestamp;temperature;humidity
36498;DHT22;22513;51.222;6.480;2023-01-28T00:01:42;3.60;99.90
36498;DHT22;22513;51.222;6.480;2023-01-28T00:04:07;3.60;99.90
36498;DHT22;22513;51.222;6.480;2023-01-28T00:06:33;3.50;99.90
36498;DHT22;22513;51.222;6.480;2023-01-28T00:08:59;3.50;99.90
36498;DHT22;22513;51.222;6.480;2023-01-28T00:11:25;3.50;99.90
36498;DHT22;22513;51.222;6.480;2023-01-28T00:13:51;3.50;99.90
36498;DHT22;22513;51.222;6.480;2023-01-28T00:16:17;3.50;99.90
36498;DHT22;22513;51.222;6.480;2023-01-28T00:18:43;3.50;99.90
36498;DHT22;22513;51.222;6.480;2023-01-28T00:21:10;3.50;99.90
36498;DHT22;22513;51.222;6.480;2023-01-28T00:23:38;3.50;99.90
36498;DHT22;22513;51.222;6.480;2023-01-28T00:26:12;3.50;99.90
36498;DHT22;22513;51.222;6.480;2023-01-28T00:28:38;3.50;99.90
36498;DHT22;22513;51.222;6.480;2023-01-28T00:33:34;3.40;99.90
36498;DHT22;22513;51.222;6.480;2023-01-28T00:36:01;3.40;99.90
36498;DHT22;22513;51.222;6.480;2023-01-28T00:38:27;3.40;99.90
36498;DHT22;22513;51.222;6.480;2023-01-28T00:40:53;3.40;99.90
36498;DHT22;22513;51.222;6.480;2023-01-28T00:43:19;3.40;99.90
36498;DHT22;22513;51.222;6.480;2023-01-28T00:45:45;3.40;99.90
36498;DHT22;22513;51.222;6.480;2023-01-28T00:48:10;3.40;99.90
36498;DHT22;22513;51.222;6.480;2023-01-28T00:50:36;3.40;99.90
36498;DHT22;22513;51.222;6.480;2023-01-28T00:53:03;3.40;99.90
36498;DHT22;22513;51.222;6.480;2023-01-28T00:55:29;3.40;99.90
36498;DHT22;22513;51.222;6.480;2023-01-28T00:57:55;3.40;99.90
36498;DHT22;22513;51.222;6.480;2023-01-28T01:00:21;3.40;99.90
36498;DHT22;22513;51.222;6.480;2023-01-28T01:02:50;3.30;99.90
36498;DHT22;22513;51.222;6.480;2023-01-28T01:05:16;3.30;99.90
36498;DHT22;22513;51.222;6.480;2023-01-28T01:07:41;3.30;99.90
36498;DHT22;22513;51.222;6.480;2023-01-28T01:10:15;3.30;99.90
36498;DHT22;22513;51.222;6.480;2023-01-28T01:12:41;3.20;99.90
36498;DHT22;22513;51.222;6.480;2023-01-28T01:15:08;3.20;99.90
36498;DHT22;22513;51.222;6.480;2023-01-28T01:17:35;3.30;99.90
36498;DHT22;22513;51.222;6.480;2023-01-28T01:20:03;3.20;99.90
36498;DHT22;22513;51.222;6.480;2023-01-28T01:22:34;3.30;99.90
36498;DHT22;22513;51.222;6.480;2023-01-28T01:25:01;3.20;99.90
36498;DHT22;22513;51.222;6.480;2023-01-28T01:27:28;3.20;99.90
36498;DHT22;22513;51.222;6.480;2023-01-28T01:29:54;3.20;99.90
36498;DHT22;22513;51.222;6.480;2023-01-28T01:32:19;3.20;99.90
36498;DHT22;22513;51.222;6.480;2023-01-28T01:34:46;3.20;99.90
36498;DHT22;22513;51.222;6.480;2023-01-28T01:37:12;3.20;99.90
36498;DHT22;22513;51.222;6.480;2023-01-28T01:39:37;3.20;99.90
36498;DHT22;22513;51.222;6.480;2023-01-28T01:42:03;3.10;99.90
36498;DHT22;22513;51.222;6.480;2023-01-28T01:48:01;3.10;99.90
36498;DHT22;22513;51.222;6.480;2023-01-28T01:53:02;3.10;99.90
36498;DHT22;22513;51.222;6.480;2023-01-28T01:55:30;3.00;99.90
36498;DHT22;22513;51.222;6.480;2023-01-28T01:58:02;3.00;99.90
36498;DHT22;22513;51.222;6.480;2023-01-28T02:00:28;3.00;99.90
36498;DHT22;22513;51.222;6.480;2023-01-28T02:02:54;3.00;99.90
36498;DHT22;22513;51.222;6.480;2023-01-28T02:05:21;3.00;99.90
36498;DHT22;22513;51.222;6.480;2023-01-28T02:07:49;2.90;99.90
36498;DHT22;22513;51.222;6.480;2023-01-28T02:10:16;2.90;99.90
36498;DHT22;22513;51.222;6.480;2023-01-28T02:12:46;2.90;99.90
36498;DHT22;22513;51.222;6.480;2023-01-28T02:15:17;2.90;99.90
36498;DHT22;22513;51.222;6.480;2023-01-28T02:17:44;2.80;99.90
36498;DHT22;22513;51.222;6.480;2023-01-28T02:20:13;2.80;99.90
36498;DHT22;22513;51.222;6.480;2023-01-28T02:30:43;2.70;99.90
36498;DHT22;22513;51.222;6.480;2023-01-28T02:33:38;2.70;99.90
36498;DHT22;22513;51.222;6.480;2023-01-28T02:39:05;2.70;99.90
36498;DHT22;22513;51.222;6.480;2023-01-28T02:41:43;2.60;99.90
36498;DHT22;22513;51.222;6.480;2023-01-28T02:44:10;2.70;99.90
36498;DHT22;22513;51.222;6.480;2023-01-28T02:46:36;2.70;99.90
36498;DHT22;22513;51.222;6.480;2023-01-28T02:49:43;2.60;99.90
36498;DHT22;22513;51.222;6.480;2023-01-28T03:00:32;2.60;99.90
36498;DHT22;22513;51.222;6.480;2023-01-28T03:05:51;2.50;99.90
36498;DHT22;22513;51.222;6.480;2023-01-28T03:09:00;2.50;99.90
36498;DHT22;22513;51.222;6.480;2023-01-28T03:11:49;2.40;99.90
36498;DHT22;22513;51.222;6.480;2023-01-28T03:14:35;2.40;99.90
36498;DHT22;22513;51.222;6.480;2023-01-28T03:23:54;2.30;99.90
36498;DHT22;22513;51.222;6.480;2023-01-28T03:30:14;2.30;99.90
36498;DHT22;22513;51.222;6.480;2023-01-28T03:33:00;2.30;99.90
36498;DHT22;22513;51.222;6.480;2023-01-28T03:35:46;2.30;99.90
36498;DHT22;22513;51.222;6.480;2023-01-28T03:38:30;2.20;99.90
36498;DHT22;22513;51.222;6.480;2023-01-28T03:41:08;2.20;99.90
36498;DHT22;22513;51.222;6.480;2023-01-28T03:43:34;2.20;99.90
36498;DHT22;22513;51.222;6.480;2023-01-28T03:45:59;2.20;99.90
36498;DHT22;22513;51.222;6.480;2023-01-28T03:48:27;2.20;99.90
36498;DHT22;22513;51.222;6.480;2023-01-28T03:50:54;2.20;99.90
36498;DHT22;22513;51.222;6.480;2023-01-28T03:53:21;2.20;99.90
36498;DHT22;22513;51.222;6.480;2023-01-28T03:55:49;2.20;99.90
36498;DHT22;22513;51.222;6.480;2023-01-28T03:58:16;2.20;99.90
36498;DHT22;22513;51.222;6.480;2023-01-28T04:00:42;2.20;99.90
36498;DHT22;22513;51.222;6.480;2023-01-28T04:03:13;2.20;99.90
36498;DHT22;22513;51.222;6.480;2023-01-28T04:05:44;2.20;99.90
36498;DHT22;22513;51.222;6.480;2023-01-28T04:08:10;2.20;99.90
36498;DHT22;22513;51.222;6.480;2023-01-28T04:10:37;2.20;99.90
36498;DHT22;22513;51.222;6.480;2023-01-28T04:13:03;2.20;99.90
36498;DHT22;22513;51.222;6.480;2023-01-28T04:15:29;2.20;99.90
36498;DHT22;22513;51.222;6.480;2023-01-28T04:17:55;2.20;99.90
36498;DHT22;22513;51.222;6.480;2023-01-28T04:20:20;2.20;99.90
36498;DHT22;22513;51.222;6.480;2023-01-28T04:22:46;2.20;99.90
36498;DHT22;22513;51.222;6.480;2023-01-28T04:25:12;2.20;99.90
36498;DHT22;22513;51.222;6.480;2023-01-28T04:27:37;2.20;99.90
36498;DHT22;22513;51.222;6.480;2023-01-28T04:30:03;2.20;99.90
36498;DHT22;22513;51.222;6.480;2023-01-28T04:32:29;2.20;99.90
36498;DHT22;22513;51.222;6.480;2023-01-28T04:34:55;2.10;99.90
36498;DHT22;22513;51.222;6.480;2023-01-28T04:37:20;2.10;99.90
36498;DHT22;22513;51.222;6.480;2023-01-28T04:39:46;2.20;99.90
36498;DHT22;22513;51.222;6.480;2023-01-28T04:42:11;2.10;99.90
36498;DHT22;22513;51.222;6.480;2023-01-28T04:44:37;2.10;99.90
36498;DHT22;22513;51.222;6.480;2023-01-28T04:47:02;2.20;99.90
36498;DHT22;22513;51.222;6.480;2023-01-28T04:49:28;2.20;99.90
36498;DHT22;22513;51.222;6.480;2023-01-28T04:51:53;2.20;99.90
36498;DHT22;22513;51.222;6.480;2023-01-28T04:54:19;2.20;99.90
36498;DHT22;22513;51.222;6.480;2023-01-28T04:56:45;2.10;99.90
36498;DHT22;22513;51.222;6.480;2023-01-28T04:59:10;2.10;99.90
36498;DHT22;22513;51.222;6.480;2023-01-28T05:01:36;2.10;99.90
36498;DHT22;22513;51.222;6.480;2023-01-28T05:04:01;2.10;99.90
36498;DHT22;22513;51.222;6.480;2023-01-28T05:06:30;2.10;99.90
36498;DHT22;22513;51.222;6.480;2023-01-28T05:08:56;2.10;99.90
36498;DHT22;22513;51.222;6.480;2023-01-28T05:11:22;2.10;99.90
36498;DHT22;22513;51.222;6.480;2023-01-28T05:13:48;2.10;99.90
36498;DHT22;22513;51.222;6.480;2023-01-28T05:16:14;2.10;99.90
36498;DHT22;22513;51.222;6.480;2023-01-28T05:18:39;2.10;99.90
36498;DHT22;22513;51.222;6.480;2023-01-28T05:21:05;2.10;99.90
36498;DHT22;22513;51.222;6.480;2023-01-28T05:23:31;2.10;99.90
36498;DHT22;22513;51.222;6.480;2023-01-28T05:25:56;2.10;99.90
36498;DHT22;22513;51.222;6.480;2023-01-28T05:28:22;2.10;99.90
36498;DHT22;22513;51.222;6.480;2023-01-28T05:30:47;2.10;99.90
36498;DHT22;22513;51.222;6.480;2023-01-28T05:33:13;2.10;99.90
36498;DHT22;22513;51.222;6.480;2023-01-28T05:35:38;2.10;99.90
36498;DHT22;22513;51.222;6.480;2023-01-28T05:38:04;2.10;99.90
36498;DHT22;22513;51.222;6.480;2023-01-28T05:40:30;2.00;99.90
36498;DHT22;22513;51.222;6.480;2023-01-28T05:42:55;2.00;99.90
36498;DHT22;22513;51.222;6.480;2023-01-28T05:45:21;2.00;99.90
36498;DHT22;22513;51.222;6.480;2023-01-28T05:47:46;2.10;99.90
36498;DHT22;22513;51.222;6.480;2023-01-28T05:50:13;2.10;99.90
36498;DHT22;22513;51.222;6.480;2023-01-28T05:52:39;2.10;99.90
36498;DHT22;22513;51.222;6.480;2023-01-28T05:55:05;2.10;99.90
36498;DHT22;22513;51.222;6.480;2023-01-28T05:57:32;2.10;99.90
36498;DHT22;22513;51.222;6.480;2023-01-28T05:59:57;2.10;99.90
36498;DHT22;22513;51.222;6.480;2023-01-28T06:02:23;2.00;99.90
36498;DHT22;22513;51.222;6.480;2023-01-28T06:04:48;2.00;99.90
36498;DHT22;22513;51.222;6.480;2023-01-28T06:07:14;2.00;99.90
36498;DHT22;22513;51.222;6.480;2023-01-28T06:09:43;2.00;99.90
36498;DHT22;22513;51.222;6.480;2023-01-28T06:12:09;2.00;99.90
36498;DHT22;22513;51.222;6.480;2023-01-28T06:14:35;2.00;99.90
36498;DHT22;22513;51.222;6.480;2023-01-28T06:17:00;2.00;99.90
36498;DHT22;22513;51.222;6.480;2023-01-28T06:19:26;2.00;99.90
36498;DHT22;22513;51.222;6.480;2023-01-28T06:21:51;2.00;99.90
36498;DHT22;22513;51.222;6.480;2023-01-28T06:24:17;2.00;99.90
36498;DHT22;22513;51.222;6.480;2023-01-28T06:26:42;1.90;99.90
36498;DHT22;22513;51.222;6.480;2023-01-28T06:29:08;1.90;99.90
36498;DHT22;22513;51.222;6.480;2023-01-28T06:31:34;1.90;99.90
36498;DHT22;22513;51.222;6.480;2023-01-28T06:33:59;1.90;99.90
36498;DHT22;22513;51.222;6.480;2023-01-28T06:36:25;1.90;99.90
36498;DHT22;22513;51.222;6.480;2023-01-28T06:38:51;1.90;99.90
36498;DHT22;22513;51.222;6.480;2023-01-28T06:41:17;1.90;99.90
36498;DHT22;22513;51.222;6.480;2023-01-28T06:43:42;2.00;99.90
36498;DHT22;22513;51.222;6.480;2023-01-28T06:46:08;1.90;99.90
36498;DHT22;22513;51.222;6.480;2023-01-28T06:48:34;2.00;99.90
36498;DHT22;22513;51.222;6.480;2023-01-28T06:50:59;2.00;99.90
36498;DHT22;22513;51.222;6.480;2023-01-28T06:53:25;2.00;99.90
36498;DHT22;22513;51.222;6.480;2023-01-28T06:55:50;1.90;99.90
36498;DHT22;22513;51.222;6.480;2023-01-28T06:58:16;1.90;99.90
36498;DHT22;22513;51.222;6.480;2023-01-28T07:00:41;1.90;99.90
36498;DHT22;22513;51.222;6.480;2023-01-28T07:03:07;1.90;99.90
36498;DHT22;22513;51.222;6.480;2023-01-28T07:05:33;1.90;99.90
36498;DHT22;22513;51.222;6.480;2023-01-28T07:07:58;1.90;99.90
36498;DHT22;22513;51.222;6.480;2023-01-28T07:10:26;1.90;99.90
36498;DHT22;22513;51.222;6.480;2023-01-28T07:12:52;1.90;99.90
36498;DHT22;22513;51.222;6.480;2023-01-28T07:15:17;1.90;99.90
36498;DHT22;22513;51.222;6.480;2023-01-28T07:17:44;1.90;99.90
36498;DHT22;22513;51.222;6.480;2023-01-28T07:20:12;1.90;99.90
36498;DHT22;22513;51.222;6.480;2023-01-28T07:22:39;1.90;99.90
36498;DHT22;22513;51.222;6.480;2023-01-28T07:25:06;1.90;99.90
36498;DHT22;22513;51.222;6.480;2023-01-28T07:27:31;1.90;99.90
36498;DHT22;22513;51.222;6.480;2023-01-28T07:29:57;1.90;99.90
36498;DHT22;22513;51.222;6.480;2023-01-28T07:32:22;1.90;99.90
36498;DHT22;22513;51.222;6.480;2023-01-28T07:34:51;1.90;99.90
36498;DHT22;22513;51.222;6.480;2023-01-28T07:37:16;1.90;99.90
36498;DHT22;22513;51.222;6.480;2023-01-28T07:39:42;1.90;99.90
36498;DHT22;22513;51.222;6.480;2023-01-28T07:42:07;2.00;99.90
36498;DHT22;22513;51.222;6.480;2023-01-28T07:44:34;2.00;99.90
36498;DHT22;22513;51.222;6.480;2023-01-28T07:47:00;2.00;99.90
36498;DHT22;22513;51.222;6.480;2023-01-28T07:49:26;2.00;99.90
36498;DHT22;22513;51.222;6.480;2023-01-28T07:51:51;2.00;99.90
36498;DHT22;22513;51.222;6.480;2023-01-28T07:54:17;2.00;99.90
36498;DHT22;22513;51.222;6.480;2023-01-28T07:56:42;2.00;99.90
36498;DHT22;22513;51.222;6.480;2023-01-28T07:59:08;2.00;99.90
36498;DHT22;22513;51.222;6.480;2023-01-28T08:01:33;2.10;99.90
36498;DHT22;22513;51.222;6.480;2023-01-28T08:03:59;2.10;99.90
36498;DHT22;22513;51.222;6.480;2023-01-28T08:06:27;2.10;99.90
36498;DHT22;22513;51.222;6.480;2023-01-28T08:08:53;2.20;99.90
36498;DHT22;22513;51.222;6.480;2023-01-28T08:11:18;2.20;99.90
36498;DHT22;22513;51.222;6.480;2023-01-28T08:13:44;2.20;99.90
36498;DHT22;22513;51.222;6.480;2023-01-28T08:16:09;2.20;99.90
36498;DHT22;22513;51.222;6.480;2023-01-28T08:18:35;2.20;99.90
36498;DHT22;22513;51.222;6.480;2023-01-28T08:21:00;2.30;99.90
36498;DHT22;22513;51.222;6.480;2023-01-28T08:23:26;2.30;99.90
36498;DHT22;22513;51.222;6.480;2023-01-28T08:25:52;2.30;99.90
36498;DHT22;22513;51.222;6.480;2023-01-28T08:28:19;2.30;99.90
36498;DHT22;22513;51.222;6.480;2023-01-28T08:30:45;2.30;99.90
36498;DHT22;22513;51.222;6.480;2023-01-28T08:33:12;2.30;99.90
36498;DHT22;22513;51.222;6.480;2023-01-28T08:35:38;2.30;99.90
36498;DHT22;22513;51.222;6.480;2023-01-28T08:38:05;2.30;99.90
36498;DHT22;22513;51.222;6.480;2023-01-28T08:40:32;2.40;99.90
36498;DHT22;22513;51.222;6.480;2023-01-28T08:42:58;2.40;99.90
36498;DHT22;22513;51.222;6.480;2023-01-28T08:45:25;2.40;99.90
36498;DHT22;22513;51.222;6.480;2023-01-28T08:50:21;2.50;99.90
36498;DHT22;22513;51.222;6.480;2023-01-28T08:52:57;2.50;99.90
36498;DHT22;22513;51.222;6.480;2023-01-28T08:55:24;2.50;99.90
36498;DHT22;22513;51.222;6.480;2023-01-28T08:57:50;2.50;99.90
36498;DHT22;22513;51.222;6.480;2023-01-28T09:00:16;2.50;99.90
36498;DHT22;22513;51.222;6.480;2023-01-28T09:02:42;2.40;99.90
36498;DHT22;22513;51.222;6.480;2023-01-28T09:05:08;2.40;99.90
36498;DHT22;22513;51.222;6.480;2023-01-28T09:07:35;2.40;99.90
36498;DHT22;22513;51.222;6.480;2023-01-28T09:10:01;2.40;99.90
36498;DHT22;22513;51.222;6.480;2023-01-28T09:12:27;2.40;99.90
36498;DHT22;22513;51.222;6.480;2023-01-28T09:14:52;2.40;99.90
36498;DHT22;22513;51.222;6.480;2023-01-28T09:17:19;2.40;99.90
36498;DHT22;22513;51.222;6.480;2023-01-28T09:19:44;2.40;99.90
36498;DHT22;22513;51.222;6.480;2023-01-28T09:22:10;2.40;99.90
36498;DHT22;22513;51.222;6.480;2023-01-28T09:24:36;2.40;99.90
36498;DHT22;22513;51.222;6.480;2023-01-28T09:27:01;2.40;99.90
36498;DHT22;22513;51.222;6.480;2023-01-28T09:29:27;2.40;99.90
36498;DHT22;22513;51.222;6.480;2023-01-28T09:31:55;2.40;99.90
36498;DHT22;22513;51.222;6.480;2023-01-28T09:34:20;2.50;99.90
36498;DHT22;22513;51.222;6.480;2023-01-28T09:36:46;2.50;99.90
36498;DHT22;22513;51.222;6.480;2023-01-28T09:39:11;2.40;99.90
36498;DHT22;22513;51.222;6.480;2023-01-28T09:49:48;2.40;99.90
36498;DHT22;22513;51.222;6.480;2023-01-28T09:52:18;2.30;99.90
36498;DHT22;22513;51.222;6.480;2023-01-28T09:54:49;2.30;99.90
36498;DHT22;22513;51.222;6.480;2023-01-28T09:57:46;2.30;99.90
36498;DHT22;22513;51.222;6.480;2023-01-28T10:00:46;2.20;99.90
36498;DHT22;22513;51.222;6.480;2023-01-28T10:03:25;2.20;99.90
36498;DHT22;22513;51.222;6.480;2023-01-28T10:17:16;2.50;99.90
36498;DHT22;22513;51.222;6.480;2023-01-28T10:19:49;2.50;99.90
36498;DHT22;22513;51.222;6.480;2023-01-28T10:22:26;2.50;99.90
36498;DHT22;22513;51.222;6.480;2023-01-28T10:24:59;2.50;99.90
36498;DHT22;22513;51.222;6.480;2023-01-28T10:27:31;2.50;99.90
36498;DHT22;22513;51.222;6.480;2023-01-28T10:29:58;2.60;99.90
36498;DHT22;22513;51.222;6.480;2023-01-28T10:32:33;2.60;99.90
36498;DHT22;22513;51.222;6.480;2023-01-28T10:34:59;2.60;99.90
36498;DHT22;22513;51.222;6.480;2023-01-28T10:37:29;2.60;99.90
36498;DHT22;22513;51.222;6.480;2023-01-28T10:39:57;2.60;99.90
36498;DHT22;22513;51.222;6.480;2023-01-28T10:42:34;2.70;99.90
36498;DHT22;22513;51.222;6.480;2023-01-28T10:45:22;2.80;99.90
36498;DHT22;22513;51.222;6.480;2023-01-28T10:50:28;3.00;99.90
36498;DHT22;22513;51.222;6.480;2023-01-28T10:53:00;2.90;99.90
36498;DHT22;22513;51.222;6.480;2023-01-28T10:55:47;2.90;99.90
36498;DHT22;22513;51.222;6.480;2023-01-28T10:58:18;2.80;99.90
36498;DHT22;22513;51.222;6.480;2023-01-28T11:00:45;2.80;99.90
36498;DHT22;22513;51.222;6.480;2023-01-28T11:03:17;2.80;99.90
36498;DHT22;22513;51.222;6.480;2023-01-28T11:05:50;2.80;99.90
36498;DHT22;22513;51.222;6.480;2023-01-28T11:08:17;2.80;99.90
36498;DHT22;22513;51.222;6.480;2023-01-28T11:10:43;2.80;99.90
36498;DHT22;22513;51.222;6.480;2023-01-28T11:13:29;2.80;99.90
36498;DHT22;22513;51.222;6.480;2023-01-28T11:18:49;2.70;99.90
36498;DHT22;22513;51.222;6.480;2023-01-28T11:21:18;2.50;99.90
36498;DHT22;22513;51.222;6.480;2023-01-28T11:23:55;2.50;99.90
36498;DHT22;22513;51.222;6.480;2023-01-28T11:26:24;2.60;99.90
36498;DHT22;22513;51.222;6.480;2023-01-28T11:28:51;2.60;99.90
36498;DHT22;22513;51.222;6.480;2023-01-28T11:31:19;2.60;99.90
36498;DHT22;22513;51.222;6.480;2023-01-28T11:33:51;2.60;99.90
36498;DHT22;22513;51.222;6.480;2023-01-28T11:36:20;2.60;99.90
36498;DHT22;22513;51.222;6.480;2023-01-28T11:41:14;2.60;99.90
36498;DHT22;22513;51.222;6.480;2023-01-28T11:43:40;2.60;99.90
36498;DHT22;22513;51.222;6.480;2023-01-28T11:51:56;2.60;99.90
36498;DHT22;22513;51.222;6.480;2023-01-28T11:57:48;2.60;99.90
36498;DHT22;22513;51.222;6.480;2023-01-28T12:05:54;2.40;99.90
36498;DHT22;22513;51.222;6.480;2023-01-28T12:22:04;2.50;99.90
36498;DHT22;22513;51.222;6.480;2023-01-28T12:27:24;2.50;99.90
36498;DHT22;22513;51.222;6.480;2023-01-28T12:35:53;2.60;99.90
36498;DHT22;22513;51.222;6.480;2023-01-28T12:41:14;2.80;99.90
36498;DHT22;22513;51.222;6.480;2023-01-28T12:44:00;2.90;99.90
36498;DHT22;22513;51.222;6.480;2023-01-28T12:54:38;3.40;99.90
36498;DHT22;22513;51.222;6.480;2023-01-28T12:57:09;3.60;99.90
36498;DHT22;22513;51.222;6.480;2023-01-28T12:59:50;3.70;99.90
36498;DHT22;22513;51.222;6.480;2023-01-28T13:02:27;3.80;99.90
36498;DHT22;22513;51.222;6.480;2023-01-28T13:10:44;3.90;99.90
36498;DHT22;22513;51.222;6.480;2023-01-28T13:13:14;4.10;99.90
36498;DHT22;22513;51.222;6.480;2023-01-28T13:15:43;4.00;99.90
36498;DHT22;22513;51.222;6.480;2023-01-28T13:24:36;3.10;99.90
36498;DHT22;22513;51.222;6.480;2023-01-28T13:26:44;3.00;99.90
36498;DHT22;22513;51.222;6.480;2023-01-28T13:31:43;3.10;99.90
36498;DHT22;22513;51.222;6.480;2023-01-28T13:34:32;3.00;99.90
36498;DHT22;22513;51.222;6.480;2023-01-28T13:39:49;2.90;99.90
36498;DHT22;22513;51.222;6.480;2023-01-28T13:42:20;3.10;99.90
36498;DHT22;22513;51.222;6.480;2023-01-28T13:44:47;3.30;99.90
36498;DHT22;22513;51.222;6.480;2023-01-28T13:47:29;3.50;99.90
36498;DHT22;22513;51.222;6.480;2023-01-28T13:50:04;3.60;99.90
36498;DHT22;22513;51.222;6.480;2023-01-28T13:52:44;3.70;99.90
36498;DHT22;22513;51.222;6.480;2023-01-28T14:09:09;3.30;99.90
36498;DHT22;22513;51.222;6.480;2023-01-28T14:17:23;3.20;99.90
36498;DHT22;22513;51.222;6.480;2023-01-28T14:19:56;3.20;99.90
36498;DHT22;22513;51.222;6.480;2023-01-28T14:22:22;3.10;99.90
36498;DHT22;22513;51.222;6.480;2023-01-28T14:24:48;3.00;99.90
36498;DHT22;22513;51.222;6.480;2023-01-28T14:27:28;2.90;99.90
36498;DHT22;22513;51.222;6.480;2023-01-28T14:32:45;2.70;99.90
36498;DHT22;22513;51.222;6.480;2023-01-28T14:35:18;2.50;99.90
36498;DHT22;22513;51.222;6.480;2023-01-28T14:37:45;2.30;99.90
36498;DHT22;22513;51.222;6.480;2023-01-28T14:40:16;2.10;99.90
36498;DHT22;22513;51.222;6.480;2023-01-28T14:42:47;2.00;99.90
36498;DHT22;22513;51.222;6.480;2023-01-28T15:02:21;1.50;99.90
36498;DHT22;22513;51.222;6.480;2023-01-28T15:04:48;1.40;99.90
36498;DHT22;22513;51.222;6.480;2023-01-28T15:09:44;1.40;99.90
36498;DHT22;22513;51.222;6.480;2023-01-28T15:12:10;1.30;99.90
36498;DHT22;22513;51.222;6.480;2023-01-28T15:14:37;1.20;99.90
36498;DHT22;22513;51.222;6.480;2023-01-28T15:17:04;1.20;99.90
36498;DHT22;22513;51.222;6.480;2023-01-28T15:19:32;1.10;99.90
36498;DHT22;22513;51.222;6.480;2023-01-28T15:22:04;1.10;99.90
36498;DHT22;22513;51.222;6.480;2023-01-28T15:24:32;1.00;99.90
36498;DHT22;22513;51.222;6.480;2023-01-28T15:26:58;0.90;99.90
36498;DHT22;22513;51.222;6.480;2023-01-28T15:29:34;0.90;99.90
36498;DHT22;22513;51.222;6.480;2023-01-28T15:32:01;0.80;99.90
36498;DHT22;22513;51.222;6.480;2023-01-28T15:34:28;0.70;99.90
36498;DHT22;22513;51.222;6.480;2023-01-28T15:36:57;0.60;99.90
36498;DHT22;22513;51.222;6.480;2023-01-28T15:39:25;0.50;99.90
36498;DHT22;22513;51.222;6.480;2023-01-28T15:41:55;0.40;99.90
36498;DHT22;22513;51.222;6.480;2023-01-28T15:44:34;0.40;99.90
36498;DHT22;22513;51.222;6.480;2023-01-28T15:47:03;0.30;99.90
36498;DHT22;22513;51.222;6.480;2023-01-28T15:49:37;0.30;99.90
36498;DHT22;22513;51.222;6.480;2023-01-28T15:52:06;0.30;99.90
36498;DHT22;22513;51.222;6.480;2023-01-28T15:54:37;0.20;99.90
36498;DHT22;22513;51.222;6.480;2023-01-28T15:57:20;0.30;99.90
36498;DHT22;22513;51.222;6.480;2023-01-28T15:59:46;0.30;99.90
36498;DHT22;22513;51.222;6.480;2023-01-28T16:02:22;0.20;99.90
36498;DHT22;22513;51.222;6.480;2023-01-28T16:04:59;0.20;99.90
36498;DHT22;22513;51.222;6.480;2023-01-28T16:07:28;0.10;99.90
36498;DHT22;22513;51.222;6.480;2023-01-28T16:09:56;0.10;99.90
36498;DHT22;22513;51.222;6.480;2023-01-28T16:12:22;0.10;99.90
36498;DHT22;22513;51.222;6.480;2023-01-28T16:14:56;0.00;99.90
36498;DHT22;22513;51.222;6.480;2023-01-28T16:17:36;0.00;99.90
36498;DHT22;22513;51.222;6.480;2023-01-28T16:20:05;0.00;99.90
36498;DHT22;22513;51.222;6.480;2023-01-28T16:22:38;0.00;99.90
36498;DHT22;22513;51.222;6.480;2023-01-28T16:27:46;0.00;99.90
36498;DHT22;22513;51.222;6.480;2023-01-28T16:30:12;0.00;99.90
36498;DHT22;22513;51.222;6.480;2023-01-28T16:32:38;0.00;99.90
36498;DHT22;22513;51.222;6.480;2023-01-28T16:35:18;0.00;99.90
36498;DHT22;22513;51.222;6.480;2023-01-28T16:37:45;-0.10;99.90
36498;DHT22;22513;51.222;6.480;2023-01-28T16:40:13;-0.10;99.90
36498;DHT22;22513;51.222;6.480;2023-01-28T16:42:39;-0.20;99.90
36498;DHT22;22513;51.222;6.480;2023-01-28T16:45:05;-0.20;99.90
36498;DHT22;22513;51.222;6.480;2023-01-28T16:47:31;-0.30;99.90
36498;DHT22;22513;51.222;6.480;2023-01-28T16:49:56;-0.40;99.90
36498;DHT22;22513;51.222;6.480;2023-01-28T16:52:22;-0.40;99.90
36498;DHT22;22513;51.222;6.480;2023-01-28T16:54:47;-0.50;99.90
36498;DHT22;22513;51.222;6.480;2023-01-28T16:57:19;-0.50;99.90
36498;DHT22;22513;51.222;6.480;2023-01-28T16:59:44;-0.60;99.90
36498;DHT22;22513;51.222;6.480;2023-01-28T17:02:15;-0.70;99.90
36498;DHT22;22513;51.222;6.480;2023-01-28T17:04:40;-0.70;99.90
36498;DHT22;22513;51.222;6.480;2023-01-28T17:07:07;-0.80;99.90
36498;DHT22;22513;51.222;6.480;2023-01-28T17:09:32;-0.90;99.90
36498;DHT22;22513;51.222;6.480;2023-01-28T17:11:58;-1.00;99.90
36498;DHT22;22513;51.222;6.480;2023-01-28T17:14:24;-1.10;99.90
36498;DHT22;22513;51.222;6.480;2023-01-28T17:16:49;-1.10;99.90
36498;DHT22;22513;51.222;6.480;2023-01-28T17:19:16;-1.10;99.90
36498;DHT22;22513;51.222;6.480;2023-01-28T17:21:41;-1.20;99.90
36498;DHT22;22513;51.222;6.480;2023-01-28T17:24:07;-1.20;99.90
36498;DHT22;22513;51.222;6.480;2023-01-28T17:26:33;-1.20;99.90
36498;DHT22;22513;51.222;6.480;2023-01-28T17:29:01;-1.30;99.90
36498;DHT22;22513;51.222;6.480;2023-01-28T17:31:27;-1.30;99.90
36498;DHT22;22513;51.222;6.480;2023-01-28T17:33:53;-1.30;99.90
36498;DHT22;22513;51.222;6.480;2023-01-28T17:36:19;-1.30;99.90
36498;DHT22;22513;51.222;6.480;2023-01-28T17:38:45;-1.40;99.90
36498;DHT22;22513;51.222;6.480;2023-01-28T17:41:12;-1.40;99.90
36498;DHT22;22513;51.222;6.480;2023-01-28T17:43:38;-1.50;99.90
36498;DHT22;22513;51.222;6.480;2023-01-28T17:46:14;-1.60;99.90
36498;DHT22;22513;51.222;6.480;2023-01-28T17:48:40;-1.60;99.90
36498;DHT22;22513;51.222;6.480;2023-01-28T17:51:07;-1.70;99.90
36498;DHT22;22513;51.222;6.480;2023-01-28T17:53:32;-1.70;99.90
36498;DHT22;22513;51.222;6.480;2023-01-28T17:55:58;-1.80;99.90
36498;DHT22;22513;51.222;6.480;2023-01-28T17:58:23;-1.90;99.90
36498;DHT22;22513;51.222;6.480;2023-01-28T18:00:49;-2.00;99.90
36498;DHT22;22513;51.222;6.480;2023-01-28T18:03:15;-2.00;99.90
36498;DHT22;22513;51.222;6.480;2023-01-28T18:05:41;-2.00;99.90
36498;DHT22;22513;51.222;6.480;2023-01-28T18:08:07;-2.00;99.90
36498;DHT22;22513;51.222;6.480;2023-01-28T18:10:33;-2.00;99.90
36498;DHT22;22513;51.222;6.480;2023-01-28T18:12:59;-2.00;99.90
36498;DHT22;22513;51.222;6.480;2023-01-28T18:15:25;-2.00;99.90
36498;DHT22;22513;51.222;6.480;2023-01-28T18:17:51;-2.00;99.90
36498;DHT22;22513;51.222;6.480;2023-01-28T18:20:16;-2.00;99.90
36498;DHT22;22513;51.222;6.480;2023-01-28T18:22:43;-2.10;99.90
36498;DHT22;22513;51.222;6.480;2023-01-28T18:25:16;-2.10;99.90
36498;DHT22;22513;51.222;6.480;2023-01-28T18:27:42;-2.10;99.90
36498;DHT22;22513;51.222;6.480;2023-01-28T18:30:09;-2.10;99.90
36498;DHT22;22513;51.222;6.480;2023-01-28T18:32:34;-2.10;99.90
36498;DHT22;22513;51.222;6.480;2023-01-28T18:35:00;-2.10;99.90
36498;DHT22;22513;51.222;6.480;2023-01-28T18:37:27;-2.10;99.90
36498;DHT22;22513;51.222;6.480;2023-01-28T18:39:53;-2.10;99.90
36498;DHT22;22513;51.222;6.480;2023-01-28T18:42:19;-2.10;99.90
36498;DHT22;22513;51.222;6.480;2023-01-28T18:44:45;-2.10;99.90
36498;DHT22;22513;51.222;6.480;2023-01-28T18:47:11;-2.10;99.90
36498;DHT22;22513;51.222;6.480;2023-01-28T18:49:37;-2.10;99.90
36498;DHT22;22513;51.222;6.480;2023-01-28T18:52:04;-2.20;99.90
36498;DHT22;22513;51.222;6.480;2023-01-28T18:54:30;-2.20;99.90